Time;durP1;ratioP1;P1;durP2;ratioP2;P2;SDS_P1;SDS_P2;PMS_P1;PMS_P2;Temp;Humidity;BMP_temperature;BMP_pressure;BME280_temperature;BME280_humidity;BME280_pressure;Samples;Min_cycle;Max_cycle;Signal;HPM_P1;HPM_P2
2021/08/13 00:00:06;;;;;;;12.67;11.47;;;18.90;1.00;;;;;;5061847;28;20448;-78
2021/08/13 00:02:33;;;;;;;11.60;10.60;;;18.80;1.00;;;;;;5085668;28;20547;-78
2021/08/13 00:05:00;;;;;;;12.90;11.60;;;18.80;1.00;;;;;;5089210;28;20466;-78
2021/08/13 00:07:26;;;;;;;12.03;10.80;;;18.80;1.00;;;;;;5078337;28;20517;-77
2021/08/13 00:09:54;;;;;;;13.00;11.80;;;18.70;1.00;;;;;;5059829;28;21330;-77
2021/08/13 00:12:21;;;;;;;11.80;10.80;;;18.70;1.00;;;;;;5075534;28;20440;-77
2021/08/13 00:14:48;;;;;;;11.33;10.33;;;18.70;1.00;;;;;;5078785;28;20467;-77
2021/08/13 00:17:16;;;;;;;12.07;10.30;;;18.80;1.00;;;;;;5063242;28;20460;-82
2021/08/13 00:19:42;;;;;;;12.60;11.43;;;18.80;1.00;;;;;;5062881;28;21177;-78
2021/08/13 00:22:09;;;;;;;11.13;10.13;;;18.80;1.00;;;;;;5077519;28;20501;-78
2021/08/13 00:24:36;;;;;;;11.57;10.60;;;18.90;1.00;;;;;;5073497;28;20462;-77
2021/08/13 00:27:04;;;;;;;12.10;11.00;;;18.80;1.00;;;;;;5073152;28;20423;-77
2021/08/13 00:29:31;;;;;;;11.53;10.53;;;18.80;1.00;;;;;;5058011;28;20651;-77
2021/08/13 00:31:59;;;;;;;11.60;10.60;;;18.80;1.00;;;;;;5072662;28;20801;-80
2021/08/13 00:34:26;;;;;;;11.80;10.70;;;18.80;1.00;;;;;;5071813;28;20474;-79
2021/08/13 00:36:53;;;;;;;11.30;9.70;;;18.80;1.00;;;;;;5076786;28;20455;-79
2021/08/13 00:39:19;;;;;;;11.97;10.87;;;18.90;1.00;;;;;;5075094;28;21481;-78
2021/08/13 00:41:46;;;;;;;11.33;10.33;;;18.90;1.00;;;;;;5073860;28;20451;-78
2021/08/13 00:44:14;;;;;;;11.00;10.10;;;18.90;1.00;;;;;;5076829;28;20412;-78
2021/08/13 00:46:41;;;;;;;10.47;9.57;;;18.90;1.00;;;;;;5076455;28;20540;-77
2021/08/13 00:49:08;;;;;;;11.17;9.97;;;18.90;1.00;;;;;;5070241;28;20626;-78
2021/08/13 00:51:36;;;;;;;11.67;10.70;;;18.90;1.00;;;;;;5077167;28;20451;-78
2021/08/13 00:54:04;;;;;;;12.17;10.80;;;18.90;1.00;;;;;;5071206;28;20459;-79
2021/08/13 00:56:30;;;;;;;11.07;10.17;;;18.90;1.00;;;;;;5063090;28;21447;-76
2021/08/13 00:58:58;;;;;;;11.17;10.27;;;18.90;1.00;;;;;;5071902;28;20475;-78
2021/08/13 01:01:27;;;;;;;11.00;10.10;;;18.80;1.00;;;;;;5071315;28;20465;-77
2021/08/13 01:03:53;;;;;;;11.33;10.40;;;18.90;1.00;;;;;;5074613;28;20448;-76
2021/08/13 01:06:22;;;;;;;13.47;12.20;;;18.90;1.00;;;;;;5075443;28;20955;-78
2021/08/13 01:08:48;;;;;;;12.20;11.00;;;18.80;1.00;;;;;;5073911;28;20521;-78
2021/08/13 01:11:20;;;;;;;12.67;11.67;;;18.80;1.00;;;;;;5084401;28;21290;-76
2021/08/13 01:13:53;;;;;;;9.50;8.80;;;18.80;1.00;;;;;;5083303;28;20437;-76
2021/08/13 01:16:21;;;;;;;11.70;10.80;;;18.80;1.00;;;;;;5073484;28;20460;-78
2021/08/13 01:18:53;;;;;;;12.33;11.33;;;18.70;1.00;;;;;;5057737;28;20473;-80
2021/08/13 01:21:41;;;;;;;12.07;10.87;;;18.70;1.00;;;;;;5074541;28;21326;-78
2021/08/13 01:24:15;;;;;;;13.47;12.07;;;18.70;1.00;;;;;;5075611;28;20451;-80
2021/08/13 01:26:45;;;;;;;12.23;11.23;;;18.70;1.00;;;;;;5071108;28;20492;-77
2021/08/13 01:29:19;;;;;;;13.20;12.10;;;18.70;1.00;;;;;;5073016;28;20754;-80
2021/08/13 01:31:54;;;;;;;12.33;11.03;;;18.70;1.00;;;;;;5070813;28;20446;-77
2021/08/13 01:34:24;;;;;;;11.60;10.70;;;18.70;1.00;;;;;;5080763;28;20430;-77
2021/08/13 01:36:55;;;;;;;11.27;10.27;;;18.60;1.00;;;;;;5069079;28;20404;-77
2021/08/13 01:39:22;;;;;;;13.23;12.13;;;18.60;1.00;;;;;;5077955;28;20462;-79
2021/08/13 01:41:50;;;;;;;11.50;10.50;;;18.60;1.00;;;;;;5072788;28;20462;-74
2021/08/13 01:44:18;;;;;;;11.40;10.40;;;18.60;1.00;;;;;;5074448;28;20454;-74
2021/08/13 01:46:47;;;;;;;10.90;9.80;;;18.60;1.00;;;;;;5073183;28;20475;-77
2021/08/13 01:49:15;;;;;;;11.30;10.40;;;18.60;1.00;;;;;;5072419;28;20461;-76
2021/08/13 01:51:44;;;;;;;12.00;10.93;;;18.60;1.00;;;;;;5056893;28;20421;-76
2021/08/13 01:54:12;;;;;;;12.57;11.47;;;18.60;1.00;;;;;;5075687;28;20481;-73
2021/08/13 01:56:39;;;;;;;12.17;11.17;;;18.60;1.00;;;;;;5071996;28;20413;-75
2021/08/13 01:59:06;;;;;;;11.77;10.77;;;18.60;1.00;;;;;;5079720;28;20454;-76
2021/08/13 02:01:33;;;;;;;12.00;10.90;;;18.60;1.00;;;;;;5072392;28;20483;-75
2021/08/13 02:07:43;;;;;;;11.27;10.37;;;18.50;1.00;;;;;;5060139;28;20415;-75
2021/08/13 02:10:12;;;;;;;12.50;11.50;;;18.50;1.00;;;;;;5074298;28;20551;-78
2021/08/13 02:12:39;;;;;;;12.83;11.50;;;18.40;1.00;;;;;;5075792;28;20411;-77
2021/08/13 02:15:08;;;;;;;12.23;11.10;;;18.50;1.00;;;;;;5078303;28;20446;-76
2021/08/13 02:17:40;;;;;;;12.67;11.67;;;18.50;1.00;;;;;;5087728;28;20527;-75
2021/08/13 02:20:11;;;;;;;10.43;9.63;;;18.50;1.00;;;;;;5087839;28;20414;-76
2021/08/13 02:22:38;;;;;;;11.93;10.93;;;18.50;1.00;;;;;;5085618;28;20449;-76
2021/08/13 02:25:08;;;;;;;13.17;11.90;;;18.50;1.00;;;;;;5076623;28;21194;-75
2021/08/13 02:27:35;;;;;;;12.70;11.47;;;18.50;1.00;;;;;;5079433;28;20459;-76
2021/08/13 02:30:01;;;;;;;12.63;11.50;;;18.40;1.00;;;;;;5078505;28;21537;-75
2021/08/13 02:32:29;;;;;;;12.47;10.83;;;18.40;1.00;;;;;;5075535;28;21415;-75
2021/08/13 02:34:57;;;;;;;13.63;12.20;;;18.40;1.00;;;;;;5080508;28;20435;-76
2021/08/13 02:37:33;;;;;;;12.73;11.73;;;18.40;1.00;;;;;;5078195;28;20458;-77
2021/08/13 02:40:02;;;;;;;12.03;11.10;;;18.40;1.00;;;;;;5083282;28;21733;-76
2021/08/13 02:42:37;;;;;;;12.17;11.17;;;18.40;1.00;;;;;;5085593;28;20451;-75
2021/08/13 02:45:05;;;;;;;13.23;12.13;;;18.40;1.00;;;;;;5061031;28;20529;-77
2021/08/13 02:47:32;;;;;;;13.00;11.40;;;18.30;1.00;;;;;;5080689;28;20868;-76
2021/08/13 02:50:03;;;;;;;14.20;13.10;;;18.30;1.00;;;;;;5077096;28;20633;-78
2021/08/13 02:52:34;;;;;;;13.67;12.57;;;18.30;1.00;;;;;;5078753;28;20435;-77
2021/08/13 02:55:05;;;;;;;12.37;11.17;;;18.30;1.00;;;;;;5072205;28;20459;-76
2021/08/13 02:57:37;;;;;;;12.37;11.27;;;18.30;1.00;;;;;;5079749;28;20487;-76
2021/08/13 03:00:05;;;;;;;12.63;11.33;;;18.30;1.00;;;;;;5077790;28;20470;-74
2021/08/13 03:02:32;;;;;;;12.10;11.10;;;18.20;1.00;;;;;;5079864;28;20542;-77
2021/08/13 03:04:59;;;;;;;14.60;13.30;;;18.30;1.00;;;;;;5076959;28;20423;-76
2021/08/13 03:07:28;;;;;;;12.47;11.33;;;18.30;1.00;;;;;;5076838;28;20443;-76
2021/08/13 03:09:56;;;;;;;13.60;12.40;;;18.30;1.00;;;;;;5083081;28;20490;-76
2021/08/13 03:12:24;;;;;;;12.80;11.60;;;18.20;1.00;;;;;;5079571;28;20446;-79
2021/08/13 03:14:53;;;;;;;12.97;11.93;;;18.20;1.00;;;;;;5077985;28;20486;-75
2021/08/13 03:17:20;;;;;;;12.20;11.07;;;18.20;1.00;;;;;;5081736;28;20460;-75
2021/08/13 03:19:47;;;;;;;13.93;12.53;;;18.10;1.00;;;;;;5083501;28;20453;-77
2021/08/13 03:22:15;;;;;;;13.50;12.33;;;18.10;1.00;;;;;;5094077;28;20396;-75
2021/08/13 03:24:42;;;;;;;13.70;12.63;;;18.20;1.00;;;;;;5104253;28;20416;-74
2021/08/13 03:27:11;;;;;;;15.00;13.70;;;18.20;1.00;;;;;;5101074;28;20410;-74
2021/08/13 03:29:40;;;;;;;13.07;12.00;;;18.20;1.00;;;;;;5101310;28;20412;-75
2021/08/13 03:32:09;;;;;;;13.37;12.37;;;18.20;1.00;;;;;;5102290;28;20412;-74
2021/08/13 03:34:36;;;;;;;13.17;12.07;;;18.20;1.00;;;;;;5101157;28;20443;-76
2021/08/13 03:37:03;;;;;;;15.33;13.93;;;18.20;1.00;;;;;;5095799;28;20981;-75
2021/08/13 03:39:30;;;;;;;14.00;12.30;;;18.20;1.00;;;;;;5098033;28;20462;-72
2021/08/13 03:41:58;;;;;;;12.73;11.63;;;18.20;1.00;;;;;;5093866;28;20446;-75
2021/08/13 03:44:24;;;;;;;13.93;12.70;;;18.20;1.00;;;;;;5094393;28;20537;-75
2021/08/13 03:46:51;;;;;;;15.23;14.00;;;18.20;1.00;;;;;;5097753;28;20518;-74
2021/08/13 03:49:19;;;;;;;13.30;11.97;;;18.20;1.00;;;;;;5099435;28;20443;-74
2021/08/13 03:51:46;;;;;;;13.23;12.03;;;18.20;1.00;;;;;;5078356;28;20415;-74
2021/08/13 03:54:13;;;;;;;14.03;12.93;;;18.20;1.00;;;;;;5096901;28;20418;-74
2021/08/13 03:56:39;;;;;;;14.67;13.23;;;18.20;1.00;;;;;;5083305;28;20451;-75
2021/08/13 03:59:06;;;;;;;14.53;13.03;;;18.10;1.00;;;;;;5092074;28;20469;-74
2021/08/13 04:01:33;;;;;;;14.97;13.47;;;18.20;1.00;;;;;;5089852;28;20428;-73
2021/08/13 04:04:00;;;;;;;15.13;13.93;;;18.20;1.00;;;;;;5090905;28;20482;-76
2021/08/13 04:06:28;;;;;;;17.90;16.23;;;18.20;1.00;;;;;;5088175;28;20435;-74
2021/08/13 04:08:55;;;;;;;17.53;16.00;;;18.20;1.00;;;;;;5088639;28;20464;-74
2021/08/13 04:11:22;;;;;;;15.30;14.03;;;18.30;1.00;;;;;;5087028;28;20467;-75
2021/08/13 04:13:49;;;;;;;16.47;14.93;;;18.30;1.00;;;;;;5096744;28;20482;-73
2021/08/13 04:16:15;;;;;;;14.10;12.77;;;18.40;1.00;;;;;;5097836;28;20459;-74
2021/08/13 04:18:43;;;;;;;15.70;14.40;;;18.40;1.00;;;;;;5096801;28;20462;-75
2021/08/13 04:21:10;;;;;;;14.03;12.93;;;18.40;1.00;;;;;;5097962;28;20443;-75
2021/08/13 04:23:38;;;;;;;13.60;12.30;;;18.50;1.00;;;;;;5101266;28;20436;-74
2021/08/13 04:26:05;;;;;;;14.67;13.17;;;18.60;1.00;;;;;;5100626;28;20633;-76
2021/08/13 04:28:31;;;;;;;13.27;12.10;;;18.60;1.00;;;;;;5100266;28;20455;-74
2021/08/13 04:30:58;;;;;;;13.60;12.40;;;18.70;1.00;;;;;;5103469;28;20412;-73
2021/08/13 04:33:25;;;;;;;14.53;13.00;;;18.80;1.00;;;;;;5097411;28;20451;-73
2021/08/13 04:35:52;;;;;;;13.63;12.43;;;18.80;1.00;;;;;;5104622;28;20415;-74
2021/08/13 04:38:18;;;;;;;14.47;13.10;;;18.80;1.00;;;;;;5102143;28;20451;-74
2021/08/13 04:40:46;;;;;;;12.90;11.80;;;18.80;1.00;;;;;;5102600;28;20411;-75
2021/08/13 04:43:13;;;;;;;14.10;12.90;;;18.80;1.00;;;;;;5105274;28;20474;-74
2021/08/13 04:45:40;;;;;;;14.47;13.27;;;18.80;1.00;;;;;;5105002;28;20514;-73
2021/08/13 04:48:06;;;;;;;14.13;13.00;;;18.90;1.00;;;;;;5098632;28;20462;-74
2021/08/13 04:50:33;;;;;;;13.30;12.00;;;18.80;1.00;;;;;;5102220;28;20487;-75
2021/08/13 04:53:00;;;;;;;13.70;12.30;;;18.80;1.00;;;;;;5099588;28;20396;-72
2021/08/13 04:55:27;;;;;;;13.83;12.70;;;18.90;1.00;;;;;;5095506;28;20455;-74
2021/08/13 04:57:55;;;;;;;14.13;12.90;;;18.90;1.00;;;;;;5090933;28;20541;-74
2021/08/13 05:00:22;;;;;;;13.17;11.97;;;19.00;1.00;;;;;;5085970;28;20530;-74
2021/08/13 05:02:49;;;;;;;13.60;12.30;;;19.00;1.00;;;;;;5087604;28;20505;-76
2021/08/13 05:05:16;;;;;;;13.57;12.27;;;19.10;1.00;;;;;;5090298;28;21195;-75
2021/08/13 05:07:43;;;;;;;14.03;12.73;;;19.20;1.00;;;;;;5081143;28;20462;-73
2021/08/13 05:10:13;;;;;;;14.27;12.87;;;19.20;1.00;;;;;;5079138;28;20853;-74
2021/08/13 05:12:40;;;;;;;13.80;12.50;;;19.20;1.00;;;;;;5066881;28;20535;-74
2021/08/13 05:15:10;;;;;;;13.60;12.30;;;19.20;1.00;;;;;;5079500;28;20465;-74
2021/08/13 05:17:37;;;;;;;14.67;13.17;;;19.20;1.00;;;;;;5087377;28;20456;-75
2021/08/13 05:20:06;;;;;;;13.30;12.10;;;19.20;1.00;;;;;;5081900;28;20455;-74
2021/08/13 05:22:35;;;;;;;15.90;13.90;;;19.20;1.00;;;;;;5085786;28;20576;-74
2021/08/13 05:25:02;;;;;;;13.83;12.43;;;19.20;1.00;;;;;;5080730;28;20517;-74
2021/08/13 05:27:29;;;;;;;14.60;13.27;;;19.20;1.00;;;;;;5082174;28;20523;-75
2021/08/13 05:29:56;;;;;;;15.27;13.83;;;19.30;1.00;;;;;;5078380;28;20479;-72
2021/08/13 05:32:24;;;;;;;14.47;12.93;;;19.30;1.00;;;;;;5087302;28;20438;-76
2021/08/13 05:34:51;;;;;;;17.67;13.40;;;19.30;1.00;;;;;;5082748;28;20502;-73
2021/08/13 05:37:18;;;;;;;17.87;14.73;;;19.30;1.00;;;;;;5063530;28;20554;-76
2021/08/13 05:39:45;;;;;;;15.20;13.83;;;19.30;1.00;;;;;;5084481;28;20421;-76
2021/08/13 05:42:12;;;;;;;16.00;13.53;;;19.40;1.00;;;;;;5084517;28;20443;-75
2021/08/13 05:44:39;;;;;;;14.07;12.77;;;19.40;1.00;;;;;;5080803;28;21001;-74
2021/08/13 05:47:07;;;;;;;14.43;13.17;;;19.50;1.00;;;;;;5074165;28;20420;-75
2021/08/13 05:49:35;;;;;;;17.10;14.23;;;19.40;1.00;;;;;;5079056;28;20483;-75
2021/08/13 05:52:01;;;;;;;16.27;14.57;;;19.40;1.00;;;;;;5077665;28;21330;-75
2021/08/13 05:54:30;;;;;;;14.77;13.37;;;19.20;1.00;;;;;;5076974;28;20462;-74
2021/08/13 05:56:57;;;;;;;16.20;14.60;;;19.20;1.00;;;;;;5071812;28;20453;-75
2021/08/13 05:59:24;;;;;;;15.27;13.60;;;19.10;1.00;;;;;;5085086;28;20501;-73
2021/08/13 06:01:51;;;;;;;14.53;13.33;;;19.10;1.00;;;;;;5086746;28;20430;-74
2021/08/13 06:04:18;;;;;;;15.07;13.77;;;19.00;1.00;;;;;;5084671;28;20502;-75
2021/08/13 06:06:46;;;;;;;16.30;14.17;;;19.00;1.00;;;;;;5075492;28;20455;-77
2021/08/13 06:09:13;;;;;;;15.77;14.17;;;19.10;1.00;;;;;;5079340;28;20423;-77
2021/08/13 06:11:40;;;;;;;16.43;14.97;;;19.10;1.00;;;;;;5072220;28;20582;-75
2021/08/13 06:14:07;;;;;;;15.70;14.50;;;19.30;1.00;;;;;;5069367;28;20484;-75
2021/08/13 06:16:33;;;;;;;17.27;15.67;;;19.40;1.00;;;;;;5073180;28;20463;-75
2021/08/13 06:19:00;;;;;;;18.30;15.03;;;19.60;1.00;;;;;;5070561;28;20463;-72
2021/08/13 06:21:30;;;;;;;14.90;13.60;;;19.70;1.00;;;;;;5069804;28;20463;-72
2021/08/13 06:23:58;;;;;;;14.13;12.87;;;19.80;1.00;;;;;;5072871;28;20539;-73
2021/08/13 06:26:25;;;;;;;14.67;13.27;;;19.90;1.00;;;;;;5075790;28;20461;-74
2021/08/13 06:28:51;;;;;;;14.83;13.63;;;20.10;1.00;;;;;;5075085;28;20440;-73
2021/08/13 06:31:18;;;;;;;15.77;14.37;;;20.10;1.00;;;;;;5074581;28;20455;-74
2021/08/13 06:33:45;;;;;;;15.03;12.80;;;20.20;1.00;;;;;;5077171;28;20510;-70
2021/08/13 06:36:12;;;;;;;13.67;12.57;;;20.30;1.00;;;;;;5081050;28;20504;-73
2021/08/13 06:38:38;;;;;;;15.30;13.80;;;20.40;1.00;;;;;;5080806;28;20455;-73
2021/08/13 06:41:06;;;;;;;15.57;14.00;;;20.40;1.00;;;;;;5071864;28;21276;-73
2021/08/13 06:43:33;;;;;;;14.40;13.20;;;20.40;1.00;;;;;;5077589;28;20462;-73
2021/08/13 06:45:59;;;;;;;15.10;13.60;;;20.50;1.00;;;;;;5055096;28;20450;-76
2021/08/13 06:48:26;;;;;;;14.83;13.47;;;20.70;1.00;;;;;;5071762;28;20576;-75
2021/08/13 06:50:53;;;;;;;14.77;13.23;;;20.80;1.00;;;;;;5072332;28;20415;-74
2021/08/13 06:53:20;;;;;;;14.50;13.17;;;20.90;1.00;;;;;;5072734;28;20805;-75
2021/08/13 06:55:46;;;;;;;15.33;12.20;;;21.10;1.00;;;;;;5080580;28;20458;-74
2021/08/13 06:58:14;;;;;;;15.20;13.70;;;21.20;1.00;;;;;;5076761;28;20437;-76
2021/08/13 07:00:41;;;;;;;14.93;13.23;;;21.30;1.00;;;;;;5075760;28;21002;-77
2021/08/13 07:03:08;;;;;;;14.57;13.27;;;21.50;1.00;;;;;;5077904;28;20483;-77
2021/08/13 07:05:35;;;;;;;16.03;14.63;;;21.60;1.00;;;;;;5059378;28;20451;-75
2021/08/13 07:08:07;;;;;;;16.37;14.03;;;21.70;1.00;;;;;;5083430;28;20446;-74
2021/08/13 07:10:37;;;;;;;13.30;12.20;;;21.80;1.00;;;;;;5078211;28;20412;-72
2021/08/13 07:13:04;;;;;;;14.07;12.87;;;21.90;1.00;;;;;;5079880;28;21345;-75
2021/08/13 07:15:32;;;;;;;14.27;13.10;;;22.00;1.00;;;;;;5073644;28;20464;-76
2021/08/13 07:17:59;;;;;;;13.20;12.00;;;22.20;1.00;;;;;;5079276;28;21265;-76
2021/08/13 07:20:26;;;;;;;14.23;13.03;;;22.30;1.00;;;;;;5075049;28;20540;-76
2021/08/13 07:22:53;;;;;;;13.03;11.77;;;22.40;1.00;;;;;;5078190;28;21450;-75
2021/08/13 07:25:20;;;;;;;14.00;12.60;;;22.40;1.00;;;;;;5072411;28;20454;-73
2021/08/13 07:27:47;;;;;;;13.30;12.00;;;22.50;1.00;;;;;;5071282;28;20546;-73
2021/08/13 07:30:15;;;;;;;13.83;12.53;;;22.50;1.00;;;;;;5056774;28;20443;-74
2021/08/13 07:32:45;;;;;;;16.97;12.13;;;22.70;1.00;;;;;;5072736;28;20444;-75
2021/08/13 07:35:12;;;;;;;13.70;12.53;;;22.80;1.00;;;;;;5080125;28;20517;-75
2021/08/13 07:37:39;;;;;;;14.13;12.90;;;23.00;1.00;;;;;;5078007;28;20522;-74
2021/08/13 07:40:07;;;;;;;14.43;13.17;;;23.10;1.00;;;;;;5072360;28;20620;-73
2021/08/13 07:42:36;;;;;;;13.53;12.33;;;23.30;1.00;;;;;;5077840;28;20448;-74
2021/08/13 07:45:03;;;;;;;14.20;12.30;;;23.40;1.00;;;;;;5051970;28;20524;-72
2021/08/13 07:47:32;;;;;;;12.67;11.57;;;23.50;1.00;;;;;;5084015;28;20445;-72
2021/08/13 07:50:01;;;;;;;13.47;12.27;;;23.70;1.00;;;;;;5085008;28;20448;-74
2021/08/13 07:52:28;;;;;;;12.73;10.37;;;23.90;1.00;;;;;;5084212;28;20467;-73
2021/08/13 07:54:55;;;;;;;11.63;10.43;;;24.10;1.00;;;;;;5083684;28;20422;-72
2021/08/13 07:57:22;;;;;;;12.20;11.20;;;24.20;1.00;;;;;;5085343;28;20393;-73
2021/08/13 07:59:49;;;;;;;12.43;10.90;;;24.40;1.00;;;;;;5082056;28;20476;-73
2021/08/13 08:02:16;;;;;;;12.63;10.57;;;24.60;1.00;;;;;;5079586;28;21161;-73
2021/08/13 08:04:44;;;;;;;11.10;9.97;;;24.70;1.00;;;;;;5084270;28;20458;-72
2021/08/13 08:07:12;;;;;;;12.03;10.23;;;24.80;1.00;;;;;;5088555;28;20517;-72
2021/08/13 08:09:39;;;;;;;11.50;10.40;;;24.90;1.00;;;;;;5090740;28;21024;-74
2021/08/13 08:12:06;;;;;;;14.10;11.03;;;25.00;1.00;;;;;;5093851;28;20434;-73
2021/08/13 08:14:33;;;;;;;11.10;10.00;;;25.10;1.00;;;;;;5094182;28;20490;-73
2021/08/13 08:17:00;;;;;;;11.57;10.47;;;25.20;1.00;;;;;;5100801;27;20447;-71
2021/08/13 08:19:27;;;;;;;11.50;10.37;;;25.30;1.00;;;;;;5112004;28;20432;-72
2021/08/13 08:21:54;;;;;;;10.67;9.57;;;25.50;1.00;;;;;;5112305;28;20415;-74
2021/08/13 08:24:22;;;;;;;19.73;17.97;;;25.50;1.00;;;;;;5109229;28;20455;-73
2021/08/13 08:26:49;;;;;;;15.67;12.40;;;25.70;1.00;;;;;;5112140;28;20557;-73
2021/08/13 08:29:16;;;;;;;12.23;11.00;;;25.80;1.00;;;;;;5114534;28;20485;-72
2021/08/13 08:31:43;;;;;;;12.53;10.27;;;26.00;1.00;;;;;;5113759;27;20425;-73
2021/08/13 08:34:09;;;;;;;11.60;10.50;;;26.20;1.00;;;;;;5102010;27;20445;-73
2021/08/13 08:36:36;;;;;;;13.83;12.30;;;26.30;1.00;;;;;;5107893;28;20444;-74
2021/08/13 08:39:04;;;;;;;11.30;9.23;;;26.40;1.00;;;;;;5112441;28;20483;-75
2021/08/13 08:41:32;;;;;;;11.20;9.70;;;26.50;1.00;;;;;;5108870;28;20410;-71
2021/08/13 08:43:59;;;;;;;12.87;9.77;;;26.60;1.00;;;;;;5110005;27;20411;-72
2021/08/13 08:46:26;;;;;;;14.20;9.83;;;26.80;1.00;;;;;;5108676;27;20529;-73
2021/08/13 08:48:55;;;;;;;10.10;9.10;;;26.90;1.00;;;;;;5102137;28;20488;-73
2021/08/13 08:51:23;;;;;;;9.57;8.87;;;27.00;1.00;;;;;;5099209;28;20445;-72
2021/08/13 08:53:51;;;;;;;9.10;8.33;;;27.20;1.00;;;;;;5101349;28;20446;-73
2021/08/13 08:56:23;;;;;;;10.33;9.40;;;27.20;1.00;;;;;;5093811;28;20938;-72
2021/08/13 08:58:52;;;;;;;9.17;8.40;;;27.20;1.00;;;;;;5089108;28;20515;-72
2021/08/13 09:01:19;;;;;;;9.80;9.00;;;27.20;1.00;;;;;;5085731;28;20466;-74
2021/08/13 09:03:47;;;;;;;10.17;9.17;;;27.30;1.00;;;;;;5079917;28;20537;-73
2021/08/13 09:06:14;;;;;;;12.80;8.53;;;27.40;1.00;;;;;;5085529;28;20449;-73
2021/08/13 09:08:41;;;;;;;9.87;8.50;;;27.60;1.00;;;;;;5058600;28;20482;-74
2021/08/13 09:11:09;;;;;;;9.50;8.70;;;27.80;1.00;;;;;;5079061;28;20420;-74
2021/08/13 09:13:38;;;;;;;9.83;8.47;;;27.90;1.00;;;;;;5079250;28;20486;-74
2021/08/13 09:16:13;;;;;;;7.93;7.20;;;28.20;1.00;;;;;;5079647;28;20434;-74
2021/08/13 09:18:40;;;;;;;7.93;7.10;;;28.30;1.00;;;;;;5080952;28;20481;-72
2021/08/13 09:21:07;;;;;;;8.50;7.70;;;28.50;1.00;;;;;;5077963;28;20460;-73
2021/08/13 09:23:37;;;;;;;9.03;8.03;;;28.60;1.00;;;;;;5079116;28;20540;-73
2021/08/13 09:26:06;;;;;;;8.40;7.63;;;28.70;1.00;;;;;;5081544;28;20510;-74
2021/08/13 09:28:41;;;;;;;8.00;7.30;;;28.90;1.00;;;;;;5080342;28;20508;-74
2021/08/13 09:31:18;;;;;;;10.57;7.87;;;29.10;1.00;;;;;;5080011;28;20588;-73
2021/08/13 09:33:48;;;;;;;8.63;7.83;;;29.20;1.00;;;;;;5075983;28;20466;-74
2021/08/13 09:36:19;;;;;;;8.50;7.70;;;29.50;1.00;;;;;;5080603;28;20449;-73
2021/08/13 09:38:47;;;;;;;8.80;7.33;;;29.90;1.00;;;;;;5078601;28;20467;-72
2021/08/13 09:41:16;;;;;;;8.10;7.40;;;30.40;1.00;;;;;;5079334;28;20461;-73
2021/08/13 09:43:54;;;;;;;8.83;7.83;;;31.10;1.00;;;;;;5080250;28;20473;-73
2021/08/13 09:46:23;;;;;;;8.10;7.40;;;32.30;1.00;;;;;;5080180;28;20425;-71
2021/08/13 09:48:49;;;;;;;8.87;8.00;;;33.30;1.00;;;;;;5081298;28;20471;-72
2021/08/13 09:51:42;;;;;;;8.80;6.87;;;34.10;1.00;;;;;;5078089;28;21119;-72
2021/08/13 09:54:11;;;;;;;7.00;6.40;;;34.80;1.00;;;;;;5060418;28;20459;-73
2021/08/13 09:56:39;;;;;;;8.10;7.27;;;35.40;1.00;;;;;;5076443;28;20515;-72
2021/08/13 09:59:12;;;;;;;7.50;6.90;;;36.20;1.00;;;;;;5084498;28;20553;-72
2021/08/13 10:01:42;;;;;;;6.50;5.90;;;36.60;1.00;;;;;;5080024;28;20447;-73
2021/08/13 10:04:09;;;;;;;6.43;5.83;;;37.00;1.00;;;;;;5081425;28;20450;-75
2021/08/13 10:06:37;;;;;;;9.00;5.83;;;37.30;1.00;;;;;;5078720;28;20530;-74
2021/08/13 10:09:05;;;;;;;7.10;6.40;;;37.30;1.00;;;;;;5073785;28;20996;-73
2021/08/13 10:11:35;;;;;;;7.73;5.73;;;37.50;1.00;;;;;;5075514;28;20514;-73
2021/08/13 10:14:03;;;;;;;8.53;6.30;;;38.20;1.00;;;;;;5073861;28;20458;-74
2021/08/13 10:16:30;;;;;;;6.53;6.00;;;38.80;1.00;;;;;;5078319;28;20439;-74
2021/08/13 10:18:59;;;;;;;6.23;5.63;;;39.00;1.00;;;;;;5074012;28;20471;-76
2021/08/13 10:21:28;;;;;;;6.77;6.17;;;39.70;1.00;;;;;;5078394;28;20494;-74
2021/08/13 10:23:56;;;;;;;6.70;6.10;;;40.30;1.00;;;;;;5076745;28;20598;-74
2021/08/13 10:26:24;;;;;;;8.80;7.00;;;40.30;1.00;;;;;;5077330;28;20541;-74
2021/08/13 10:28:52;;;;;;;7.70;5.87;;;40.30;1.00;;;;;;5060289;28;21036;-75
2021/08/13 10:31:20;;;;;;;10.87;7.30;;;40.50;1.00;;;;;;5074557;28;20526;-75
2021/08/13 10:33:48;;;;;;;7.03;6.33;;;40.90;1.00;;;;;;5076212;28;20597;-74
2021/08/13 10:36:18;;;;;;;8.33;7.53;;;40.90;1.00;;;;;;5077891;28;20575;-72
2021/08/13 10:38:50;;;;;;;8.50;6.50;;;39.80;1.00;;;;;;5074404;28;20968;-75
2021/08/13 10:41:21;;;;;;;6.97;5.67;;;39.10;1.00;;;;;;5077015;28;21274;-73
2021/08/13 10:43:50;;;;;;;5.67;5.10;;;38.80;1.00;;;;;;5077506;28;20473;-74
2021/08/13 10:46:20;;;;;;;6.00;5.40;;;39.50;1.00;;;;;;5073684;28;20454;-75
2021/08/13 10:48:50;;;;;;;7.70;6.20;;;39.60;1.00;;;;;;5080511;28;20557;-74
2021/08/13 10:51:27;;;;;;;6.50;6.00;;;40.20;1.00;;;;;;5077480;28;20446;-73
2021/08/13 10:54:13;;;;;;;5.50;5.10;;;40.20;1.00;;;;;;5075960;28;20429;-75
2021/08/13 10:56:41;;;;;;;8.33;6.90;;;39.90;1.00;;;;;;5072338;28;20453;-74
2021/08/13 10:59:08;;;;;;;6.80;5.27;;;39.70;1.00;;;;;;5080767;28;20465;-73
2021/08/13 11:01:35;;;;;;;6.30;5.70;;;39.90;1.00;;;;;;5077163;28;20569;-73
2021/08/13 11:04:12;;;;;;;6.63;6.10;;;40.40;1.00;;;;;;5078249;28;20450;-76
2021/08/13 11:06:45;;;;;;;6.47;5.87;;;41.10;1.00;;;;;;5076321;28;20447;-75
2021/08/13 11:09:12;;;;;;;12.73;8.20;;;41.50;1.00;;;;;;5081070;28;21411;-74
2021/08/13 11:12:03;;;;;;;18.47;10.37;;;41.50;1.00;;;;;;5074615;28;20525;-75
2021/08/13 11:14:31;;;;;;;21.97;8.67;;;40.70;1.00;;;;;;5074578;28;20479;-74
2021/08/13 11:16:58;;;;;;;11.33;5.90;;;40.20;1.00;;;;;;5077951;28;20453;-73
2021/08/13 11:19:25;;;;;;;6.80;6.20;;;39.90;1.00;;;;;;5076856;28;20482;-75
2021/08/13 11:21:58;;;;;;;31.83;11.67;;;40.10;1.00;;;;;;5080970;28;20478;-75
2021/08/13 11:24:26;;;;;;;7.17;6.57;;;39.70;1.00;;;;;;5063268;28;20466;-74
2021/08/13 11:27:09;;;;;;;11.23;7.63;;;38.40;1.00;;;;;;5079447;28;20407;-74
2021/08/13 11:29:39;;;;;;;8.43;6.37;;;37.70;1.00;;;;;;5077049;28;20529;-72
2021/08/13 11:32:09;;;;;;;7.03;6.37;;;37.60;1.00;;;;;;5081244;28;21055;-74
2021/08/13 11:34:42;;;;;;;7.03;6.20;;;38.50;1.00;;;;;;5059524;28;20460;-75
2021/08/13 11:37:10;;;;;;;6.53;5.93;;;39.70;1.00;;;;;;5079837;28;20458;-73
2021/08/13 11:39:39;;;;;;;6.80;6.20;;;40.60;1.00;;;;;;5077059;28;20438;-72
2021/08/13 11:42:07;;;;;;;6.97;6.30;;;41.40;1.00;;;;;;5081424;28;20421;-74
2021/08/13 11:44:35;;;;;;;6.30;5.80;;;41.60;1.00;;;;;;5084036;28;20511;-74
2021/08/13 11:47:02;;;;;;;7.77;7.03;;;41.70;1.00;;;;;;5078726;28;21040;-74
2021/08/13 11:49:31;;;;;;;6.70;6.00;;;42.30;1.00;;;;;;5084601;28;20438;-74
2021/08/13 11:51:58;;;;;;;7.03;6.43;;;42.50;1.00;;;;;;5079712;28;20466;-74
2021/08/13 11:54:27;;;;;;;6.87;6.30;;;42.90;1.00;;;;;;5083961;28;20455;-74
2021/08/13 11:56:54;;;;;;;7.77;6.47;;;42.80;1.00;;;;;;5078348;28;20430;-73
2021/08/13 11:59:21;;;;;;;8.33;7.40;;;42.10;1.00;;;;;;5080769;28;20415;-75
2021/08/13 12:01:49;;;;;;;8.23;6.70;;;41.90;1.00;;;;;;5075677;28;20578;-75
2021/08/13 12:04:20;;;;;;;7.03;6.43;;;42.20;1.00;;;;;;5080231;28;20461;-76
2021/08/13 12:07:01;;;;;;;7.60;6.90;;;42.50;1.00;;;;;;5083459;28;21220;-74
2021/08/13 12:09:37;;;;;;;7.80;7.10;;;42.80;1.00;;;;;;5078897;28;20534;-75
2021/08/13 12:12:05;;;;;;;8.50;7.80;;;42.60;1.00;;;;;;5059347;28;20454;-75
2021/08/13 12:14:32;;;;;;;7.60;7.00;;;42.50;1.00;;;;;;5082975;28;20477;-75
2021/08/13 12:16:59;;;;;;;8.17;7.40;;;42.20;1.00;;;;;;5079423;28;20473;-75
2021/08/13 12:19:26;;;;;;;9.20;7.60;;;41.70;1.00;;;;;;5084217;28;20431;-74
2021/08/13 12:21:55;;;;;;;8.47;7.67;;;41.30;1.00;;;;;;5078716;28;20462;-75
2021/08/13 12:24:32;;;;;;;8.77;7.90;;;40.30;1.00;;;;;;5085138;28;20465;-74
2021/08/13 12:27:02;;;;;;;8.80;7.90;;;39.70;1.00;;;;;;5079692;28;20467;-75
2021/08/13 12:29:30;;;;;;;8.10;7.40;;;39.00;1.00;;;;;;5078751;28;20890;-74
2021/08/13 12:31:58;;;;;;;9.13;8.23;;;38.90;1.00;;;;;;5076537;28;20530;-75
2021/08/13 12:34:27;;;;;;;8.67;7.97;;;38.80;1.00;;;;;;5078966;28;20446;-74
2021/08/13 12:37:05;;;;;;;8.70;7.90;;;38.90;1.00;;;;;;5077655;28;21264;-74
2021/08/13 12:39:33;;;;;;;8.47;7.67;;;39.20;1.00;;;;;;5067714;28;20459;-74
2021/08/13 12:42:01;;;;;;;8.00;7.30;;;39.20;1.00;;;;;;5081631;28;20601;-74
2021/08/13 12:44:28;;;;;;;9.33;8.23;;;38.70;1.00;;;;;;5082622;28;20446;-74
2021/08/13 12:46:56;;;;;;;8.63;7.90;;;38.40;1.00;;;;;;5093466;28;20493;-74
2021/08/13 12:49:23;;;;;;;8.47;7.77;;;38.30;1.00;;;;;;5081607;28;20644;-75
2021/08/13 12:52:07;;;;;;;8.63;7.80;;;38.80;1.00;;;;;;5086635;28;20458;-74